createdAt,value
2023-01-13T00:03:25.635Z,5.53
2023-01-13T00:08:28.319Z,6.90
2023-01-13T00:13:31.809Z,6.20
2023-01-13T00:18:33.394Z,5.57
2023-01-13T00:23:35.411Z,6.72
2023-01-13T00:28:38.086Z,6.10
2023-01-13T00:33:39.501Z,5.35
2023-01-13T00:38:42.931Z,5.25
2023-01-13T00:43:44.717Z,5.53
2023-01-13T00:48:47.015Z,6.03
2023-01-13T00:53:49.407Z,5.50
2023-01-13T00:58:52.060Z,5.10
2023-01-13T01:03:54.252Z,4.63
2023-01-13T01:08:56.302Z,6.10
2023-01-13T01:13:59.239Z,5.10
2023-01-13T01:19:01.025Z,6.07
2023-01-13T01:24:03.209Z,5.15
2023-01-13T01:29:04.649Z,5.00
2023-01-13T01:34:06.129Z,4.70
2023-01-13T01:39:07.643Z,4.75
2023-01-13T01:44:31.190Z,6.95
2023-01-13T01:49:33.949Z,4.97
2023-01-13T01:54:48.232Z,6.95
2023-01-13T01:59:49.718Z,5.40
2023-01-13T02:04:53.391Z,4.80
2023-01-13T02:09:55.981Z,5.40
2023-01-13T02:15:15.659Z,4.78
2023-01-13T02:20:23.486Z,6.75
2023-01-13T02:25:24.939Z,5.15
2023-01-13T02:30:50.199Z,5.38
2023-01-13T02:35:57.747Z,5.43
2023-01-13T02:41:27.153Z,6.93
2023-01-13T02:46:33.005Z,4.78
2023-01-13T02:51:35.410Z,6.13
2023-01-13T02:56:39.204Z,5.63
2023-01-13T03:01:41.205Z,5.00
2023-01-13T03:06:42.591Z,5.45
2023-01-13T03:11:50.698Z,5.45
2023-01-13T03:17:10.595Z,5.25
2023-01-13T03:22:22.162Z,5.70
2023-01-13T03:27:35.640Z,5.20
2023-01-13T03:32:40.270Z,5.35
2023-01-13T03:37:45.684Z,4.57
2023-01-13T03:43:08.979Z,6.65
2023-01-13T03:48:13.730Z,4.45
2023-01-13T03:53:20.950Z,5.28
2023-01-13T03:58:28.481Z,5.97
2023-01-13T04:03:33.073Z,4.68
2023-01-13T04:08:37.583Z,4.65
2023-01-13T04:13:40.281Z,4.32
2023-01-13T04:18:42.043Z,4.30
2023-01-13T04:23:43.475Z,4.68
2023-01-13T04:28:44.884Z,3.25
2023-01-13T04:33:46.334Z,4.15
2023-01-13T04:38:47.791Z,4.15
2023-01-13T04:43:49.207Z,4.53
2023-01-13T04:48:51.116Z,3.83
2023-01-13T04:53:53.123Z,3.72
2023-01-13T04:58:54.548Z,4.00
2023-01-13T05:03:57.225Z,3.33
2023-01-13T05:08:58.671Z,4.20
2023-01-13T05:14:18.795Z,3.45
2023-01-13T05:19:20.202Z,3.88
2023-01-13T05:24:40.311Z,3.70
2023-01-13T05:29:41.687Z,3.47
2023-01-13T05:34:43.096Z,3.42
2023-01-13T05:40:03.295Z,3.33
2023-01-13T05:50:06.380Z,3.75
2023-01-13T05:55:07.924Z,3.72
2023-01-13T06:00:10.947Z,3.67
2023-01-13T06:05:12.332Z,3.30
2023-01-13T06:10:13.713Z,4.32
2023-01-13T06:15:15.130Z,3.10
2023-01-13T06:20:16.966Z,4.35
2023-01-13T06:25:22.044Z,3.60
2023-01-13T06:30:26.044Z,4.78
2023-01-13T06:35:30.074Z,4.40
2023-01-13T06:40:31.516Z,4.35
2023-01-13T06:45:33.094Z,4.63
2023-01-13T06:50:34.465Z,4.88
2023-01-13T06:55:36.340Z,4.10
2023-01-13T07:00:37.933Z,3.92
2023-01-13T07:05:40.139Z,3.97
2023-01-13T07:10:41.581Z,4.07
2023-01-13T07:15:52.621Z,4.50
2023-01-13T07:20:58.414Z,4.55
2023-01-13T07:26:00.224Z,4.22
2023-01-13T07:31:04.691Z,5.30
2023-01-13T07:36:07.819Z,4.00
2023-01-13T07:41:30.298Z,3.78
2023-01-13T07:46:32.110Z,4.47
2023-01-13T07:51:35.969Z,4.45
2023-01-13T07:56:37.356Z,3.30
2023-01-13T08:01:38.880Z,3.70
2023-01-13T08:06:43.833Z,4.10
2023-01-13T08:12:05.607Z,4.53
2023-01-13T08:17:10.529Z,4.53
2023-01-13T08:22:11.973Z,3.83
2023-01-13T08:27:13.416Z,3.80
2023-01-13T08:32:14.820Z,3.25
2023-01-13T08:37:16.290Z,3.42
2023-01-13T08:42:18.029Z,4.00
2023-01-13T08:47:20.112Z,4.07
2023-01-13T08:52:26.767Z,4.15
2023-01-13T08:57:28.788Z,3.63
2023-01-13T09:02:30.303Z,3.17
2023-01-13T09:07:31.778Z,4.20
2023-01-13T09:12:51.733Z,3.65
2023-01-13T09:17:53.177Z,2.97
2023-01-13T09:22:57.073Z,4.07
2023-01-13T09:27:58.465Z,3.22
2023-01-13T09:33:18.847Z,4.38
2023-01-13T09:38:26.616Z,3.42
2023-01-13T09:43:53.601Z,3.47
2023-01-13T09:48:55.977Z,4.53
2023-01-13T09:54:02.007Z,4.38
2023-01-13T09:59:03.506Z,3.00
2023-01-13T10:04:10.270Z,3.83
2023-01-13T10:09:18.932Z,3.58
2023-01-13T10:14:24.564Z,4.13
2023-01-13T10:19:29.347Z,3.10
2023-01-13T10:24:33.876Z,3.53
2023-01-13T10:29:36.292Z,3.20
2023-01-13T10:34:51.256Z,2.88
2023-01-13T10:39:56.441Z,3.03
2023-01-13T10:44:58.906Z,3.72
2023-01-13T10:50:21.322Z,4.00
2023-01-13T10:55:25.299Z,3.40
2023-01-13T11:00:28.840Z,2.90
2023-01-13T11:05:30.258Z,3.15
2023-01-13T11:10:32.684Z,3.25
2023-01-13T11:15:38.660Z,2.70
2023-01-13T11:20:42.123Z,3.22
2023-01-13T11:25:45.313Z,2.80
2023-01-13T11:30:55.548Z,2.78
2023-01-13T11:36:20.287Z,2.53
2023-01-13T11:41:25.036Z,2.95
2023-01-13T11:46:27.725Z,3.22
2023-01-13T11:51:34.643Z,3.67
2023-01-13T11:56:54.922Z,2.67
2023-01-13T12:02:05.317Z,2.72
2023-01-13T12:07:12.821Z,2.60
2023-01-13T12:12:20.226Z,2.67
2023-01-13T12:17:40.206Z,2.60
2023-01-13T12:22:42.491Z,2.80
2023-01-13T12:27:49.430Z,2.30
2023-01-13T12:32:52.496Z,2.40
2023-01-13T12:37:59.360Z,2.85
2023-01-13T12:43:38.717Z,2.20
2023-01-13T12:48:56.929Z,2.45
2023-01-13T12:53:58.674Z,2.80
2023-01-13T12:59:21.564Z,2.40
2023-01-13T13:04:52.027Z,3.00
2023-01-13T13:09:57.811Z,2.45
2023-01-13T13:15:03.003Z,2.63
2023-01-13T13:20:04.827Z,2.55
2023-01-13T13:25:06.239Z,2.63
2023-01-13T13:30:13.771Z,2.80
2023-01-13T13:35:24.882Z,2.20
2023-01-13T13:40:46.928Z,2.78
2023-01-13T13:46:10.390Z,2.53
2023-01-13T13:51:27.899Z,2.22
2023-01-13T13:56:32.385Z,2.05
2023-01-13T14:01:36.818Z,2.63
2023-01-13T14:06:38.323Z,2.60
2023-01-13T14:11:41.119Z,3.42
2023-01-13T14:16:42.870Z,2.33
2023-01-13T14:21:47.885Z,2.28
2023-01-13T14:26:53.093Z,2.30
2023-01-13T14:31:54.714Z,2.33
2023-01-13T14:36:56.119Z,2.75
2023-01-13T14:41:57.537Z,2.00
2023-01-13T14:47:00.573Z,2.38
2023-01-13T14:52:13.068Z,2.15
2023-01-13T14:57:32.140Z,2.15
2023-01-13T15:02:39.218Z,2.00
2023-01-13T15:07:41.660Z,2.33
2023-01-13T15:12:43.320Z,2.47
2023-01-13T15:17:46.877Z,2.40
2023-01-13T15:22:48.813Z,3.42
2023-01-13T15:27:51.015Z,3.08
2023-01-13T15:32:53.197Z,2.08
2023-01-13T15:37:55.593Z,2.40
2023-01-13T15:43:15.630Z,2.83
2023-01-13T15:48:17.226Z,3.08
2023-01-13T15:53:18.674Z,2.72
2023-01-13T15:58:20.879Z,3.38
2023-01-13T16:03:22.487Z,2.95
2023-01-13T16:08:24.123Z,2.72
2023-01-13T16:13:25.514Z,2.80
2023-01-13T16:18:27.326Z,2.70
2023-01-13T16:23:28.758Z,2.75
2023-01-13T16:28:30.197Z,2.83
2023-01-13T16:33:31.612Z,3.15
2023-01-13T16:38:33.015Z,2.42
2023-01-13T16:43:34.964Z,2.97
2023-01-13T16:48:36.447Z,2.45
2023-01-13T16:53:37.900Z,2.60
2023-01-13T16:58:39.344Z,3.13
2023-01-13T17:03:40.936Z,2.95
2023-01-13T17:08:42.678Z,2.50
2023-01-13T17:13:44.182Z,2.65
2023-01-13T17:18:47.177Z,2.85
2023-01-13T17:23:49.626Z,2.97
2023-01-13T17:28:51.051Z,2.67
2023-01-13T17:33:52.541Z,3.38
2023-01-13T17:38:54.221Z,3.17
2023-01-13T17:43:55.664Z,2.30
2023-01-13T17:48:57.072Z,3.45
2023-01-13T17:53:58.560Z,2.38
2023-01-13T17:58:59.996Z,3.13
2023-01-13T18:04:01.608Z,2.58
2023-01-13T18:09:03.044Z,2.08
2023-01-13T18:14:04.515Z,2.50
2023-01-13T18:19:24.735Z,2.58
2023-01-13T18:29:46.574Z,2.53
2023-01-13T18:34:49.099Z,2.28
2023-01-13T18:39:51.839Z,1.83
2023-01-13T18:44:54.191Z,1.95
2023-01-13T18:49:56.667Z,2.45
2023-01-13T18:54:58.150Z,2.97
2023-01-13T18:59:59.752Z,2.38
2023-01-13T19:05:01.197Z,2.78
2023-01-13T19:10:04.336Z,2.38
2023-01-13T19:15:06.140Z,2.00
2023-01-13T19:20:07.903Z,2.47
2023-01-13T19:25:09.545Z,3.30
2023-01-13T19:30:11.236Z,2.88
2023-01-13T19:35:13.263Z,2.33
2023-01-13T19:40:14.871Z,2.90
2023-01-13T19:45:29.458Z,1.73
2023-01-13T19:50:30.957Z,2.40
2023-01-13T19:55:32.445Z,2.10
2023-01-13T20:00:34.947Z,2.22
2023-01-13T20:05:36.579Z,2.63
2023-01-13T20:10:38.383Z,2.92
2023-01-13T20:15:40.476Z,2.85
2023-01-13T20:20:41.941Z,2.58
2023-01-13T20:25:43.426Z,2.40
2023-01-13T20:30:45.095Z,2.42
2023-01-13T20:35:56.106Z,2.20
2023-01-13T20:41:01.397Z,2.20
2023-01-13T20:46:03.607Z,1.90
2023-01-13T20:51:05.077Z,2.63
2023-01-13T20:56:07.146Z,2.90
2023-01-13T21:01:08.682Z,3.10
2023-01-13T21:06:10.260Z,2.40
2023-01-13T21:11:14.849Z,2.17
2023-01-13T21:16:16.707Z,2.97
2023-01-13T21:21:18.231Z,2.90
2023-01-13T21:26:21.074Z,2.90
2023-01-13T21:31:22.620Z,2.42
2023-01-13T21:36:24.887Z,3.47
2023-01-13T21:41:45.263Z,2.78
2023-01-13T21:47:05.394Z,2.97
2023-01-13T21:52:06.878Z,2.85
2023-01-13T21:57:08.373Z,2.90
2023-01-13T22:02:28.716Z,3.10
2023-01-13T22:07:32.418Z,2.13
2023-01-13T22:12:33.997Z,2.65
2023-01-13T22:17:35.483Z,2.33
2023-01-13T22:22:37.161Z,2.20
2023-01-13T22:27:44.508Z,2.63
2023-01-13T22:38:12.181Z,3.17
2023-01-13T22:43:14.267Z,3.17
2023-01-13T22:48:15.750Z,2.95
2023-01-13T22:53:17.177Z,2.55
2023-01-13T22:58:18.566Z,2.53
2023-01-13T23:03:20.055Z,2.70
2023-01-13T23:08:21.572Z,4.00
2023-01-13T23:13:22.960Z,2.70
2023-01-13T23:18:25.273Z,2.83
2023-01-13T23:23:26.727Z,2.80
2023-01-13T23:28:28.640Z,2.30
2023-01-13T23:33:30.043Z,2.22
2023-01-13T23:38:31.914Z,2.88
2023-01-13T23:43:33.325Z,2.95
2023-01-13T23:48:35.521Z,2.47
2023-01-13T23:53:40.372Z,2.70
2023-01-13T23:58:42.769Z,2.83
